ADDS METAR Data INFO
IDs: Format: Raw Decoded Include TAF

Data at: 2159 UTC 24 Feb 2018

PAUN 242156Z AUTO 32017KT 10SM CLR M13/M16 A2981 RMK AO2 SLP099 T11281161 FZRANO
PAUN 242056Z AUTO 32013KT 10SM CLR M12/M16 A2977 RMK AO2 SLP087 60000 T11221156 53022 FZRANO
PAUN 241956Z AUTO 33012KT 10SM CLR M12/M14 A2975 RMK AO2 SNB02E45 SLP078 P0000 T11171144 FZRANO
PAUN 241938Z AUTO 33012KT 9SM -SN SCT021 M12/M14 A2974 RMK AO2 SNB02 P0000 FZRANO
PAUN 241923Z AUTO 34008KT 9SM -SN SCT020 BKN024 M11/M14 A2974 RMK AO2 SNB02 P0000 FZRANO
PAUN 241856Z AUTO 00000KT 10SM FEW045 M11/M13 A2973 RMK AO2 SNE40 SLP071 P0000 T11111128 FZRANO
PAUN 241756Z AUTO 14004KT 9SM -SN SCT020 M12/M13 A2971 RMK AO2 SLP065 P0000 60000 T11171133 11100 21117 53016 FZRANO
PAUN 241656Z AUTO 12004KT 8SM -SN OVC022 M11/M13 A2969 RMK AO2 SLP059 P0000 T11111128 FZRANO
PAUN 241621Z AUTO 11006KT 6SM -SN BR OVC029 M11/M13 A2968 RMK AO2 P0000 FZRANO
PAUN 241614Z AUTO 11005KT 5SM -SN BR SCT024 OVC032 M11/M13 A2968 RMK AO2 P0000 FZRANO
PAUN 241556Z AUTO 12003KT 4SM -SN BR OVC024 M10/M12 A2968 RMK AO2 SLP053 P0000 T11001117 FZRANO
PAUN 241456Z AUTO 04005KT 5SM -SN BR OVC026 M10/M12 A2966 RMK AO2 SLP049 P0000 60000 T11001122 53002 FZRANO
PAUN 241426Z AUTO 05009KT 4SM -SN BR BKN026 OVC033 M10/M12 A2966 RMK AO2 P0000 FZRANO
PAUN 241356Z AUTO 05008KT 5SM -SN BR OVC037 M10/M12 A2966 RMK AO2 SLP047 P0000 T11001122 FZRANO
PAUN 241333Z AUTO 07011KT 5SM -SN BR OVC031 M10/M12 A2965 RMK AO2 P0000 FZRANO
PAUN 241256Z AUTO 08013KT 4SM -SN OVC025 M10/M13 A2965 RMK AO2 SLP045 P0000 T11001128 FZRANO
PAUN 241238Z AUTO 08015KT 4SM -SN OVC028 M10/M13 A2965 RMK AO2 P0000 FZRANO
PAUN 241221Z AUTO 07017KT 4SM -SN BR OVC030 M10/M12 A2965 RMK AO2 P0000 FZRANO
PAUN 241156Z AUTO 07015KT 3SM -SN BR BKN015 OVC026 M10/M12 A2966 RMK AO2 SLP047 P0000 60000 T11001122 11094 21100 55004 FZRANO
PAUN 241141Z AUTO 07016KT 3SM -SN BR BKN015 OVC033 M10/M12 A2966 RMK AO2 P0000 FZRANO
PAUN 241116Z AUTO 07017KT 6SM -SN SCT016 OVC035 M09/M12 A2965 RMK AO2 P0000 FZRANO
PAUN 241105Z AUTO 07017KT 7SM -SN BKN016 BKN034 OVC042 M09/M13 A2965 RMK AO2 P0000 FZRANO
PAUN 241056Z AUTO 06019KT 6SM -SN SCT016 BKN030 OVC041 M09/M13 A2966 RMK AO2 SLP047 P0000 T10941128 FZRANO
PAUN 241032Z AUTO 07018KT 4SM -SN BKN028 OVC038 M09/M13 A2966 RMK AO2 P0000 FZRANO
PAUN 240956Z AUTO 07020KT 9SM -SN BKN065 M09/M13 A2966 RMK AO2 SNE09B38 SLP049 P0000 T10941128 FZRANO
PAUN 240856Z AUTO 06018KT 9SM -SN SCT015 BKN033 M09/M13 A2967 RMK AO2 SLP052 P0000 60000 T10941128 410561094 56037 FZRANO
PAUN 240846Z AUTO 06019KT 9SM -SN BKN015 BKN028 OVC033 M09/M13 A2968 RMK AO2 P0000 FZRANO
PAUN 240833Z AUTO 06018KT 9SM -SN BKN013 BKN028 OVC035 M09/M13 A2968 RMK AO2 P0000 FZRANO
PAUN 240824Z AUTO 06019KT 8SM -SN SCT013 BKN028 OVC035 M09/M13 A2969 RMK AO2 P0000 FZRANO
PAUN 240756Z AUTO 07016KT 9SM -SN OVC050 M09/M13 A2970 RMK AO2 SNB46 SLP061 P0000 T10941128 FZRANO
PAUN 240656Z AUTO 06016KT 10SM FEW075 M09/M13 A2974 RMK AO2 SNE35 SLP074 P0000 T10941128 FZRANO
PAUN 240556Z AUTO 06017KT 9SM -SN CLR M09/M13 A2978 RMK AO2 SNB19 SLP089 P0000 60000 T10941133 11072 21094 56036 FZRANO
PAUN 240456Z AUTO 07017KT 10SM CLR M09/M13 A2981 RMK AO2 SNB20E36 SLP100 P0000 T10941128 FZRANO
PAUN 240356Z AUTO 07020KT 10SM SCT110 M09/M12 A2984 RMK AO2 SLP110 T10891122 FZRANO
PAUN 240256Z AUTO 07017KT 10SM SCT120 M08/M12 A2989 RMK AO2 SLP125 60000 T10831122 58053 FZRANO
PAUN 240216Z AUTO 07013KT 10SM SCT025 M08/M12 A2993 RMK AO2 FZRANO
PAUN 240156Z AUTO 07012KT 10SM OVC025 M08/M12 A2995 RMK AO2 SNB12E27 SLP145 P0000 T10781117 FZRANO
PAUN 240056Z AUTO 07012KT 9SM OVC027 M07/M12 A3000 RMK AO2 SNB20E51 SLP162 P0000 T10721122 FZRANO
PAUN 232356Z AUTO 06011KT 10SM OVC027 M07/M12 A3004 RMK AO2 SNB02E12 PRESFR SLP178 P0000 60000 T10721122 11072 21089 58049 FZRANO
PAUN 232256Z AUTO 07009KT 10SM OVC027 M07/M12 A3010 RMK AO2 SNB28E38 SLP196 P0000 T10721122 FZRANO
PAUN 232156Z AUTO 06007KT 10SM OVC029 M08/M12 A3015 RMK AO2 SLP215 T10781117 FZRANO
PAUN 232056Z AUTO 05008KT 10SM OVC029 M08/M13 A3019 RMK AO2 SLP227 T10831128 58016 FZRANO
PAUN 231956Z AUTO 08008KT 10SM OVC029 M08/M12 A3022 RMK AO2 SLP237 T10831122 FZRANO
PAUN 231856Z AUTO 03008KT 10SM OVC029 M08/M13 A3023 RMK AO2 SLP242 T10831128 FZRANO
PAUN 231854Z AUTO 03008KT 10SM BKN029 OVC033 M08/M12 A3023 RMK AO2 FZRANO
PAUN 231756Z AUTO 05008KT 10SM OVC036 M08/M12 A3025 RMK AO2 SLP248 60000 T10831117 11067 21083 58011 FZRANO
PAUN 231656Z AUTO 03003KT 10SM OVC036 M08/M11 A3026 RMK AO2 SLP252 T10781111 FZRANO
PAUN 231606Z AUTO 32008KT 10SM BKN030 OVC037 M07/M11 A3028 RMK AO2 FZRANO
PAUN 231556Z AUTO 31009KT 10SM OVC029 M07/M11 A3028 RMK AO2 SNE02 SLP258 P0000 T10721111 FZRANO
PAUN 231517Z AUTO 30011KT 10SM BKN027 OVC032 M07/M12 A3027 RMK AO2 SNE02 P0000 FZRANO
PAUN 231456Z AUTO 30011KT 9SM -SN FEW020 OVC030 M07/M11 A3028 RMK AO2 SLP259 P0000 60000 T10671106 58008 FZRANO
PAUN 231356Z AUTO 28011KT 9SM -SN BKN024 OVC033 M07/M11 A3030 RMK AO2 SNB44 SLP264 P0000 T10671111 FZRANO
PAUN 231344Z AUTO 27013KT 10SM -SN BKN024 OVC033 M07/M11 A3030 RMK AO2 SNB44 P0000 FZRANO
PAUN 231256Z AUTO 28015KT 10SM SCT028 BKN034 OVC042 M07/M11 A3031 RMK AO2 SLP268 T10671111 FZRANO
PAUN 231156Z AUTO 28018KT 10SM FEW026 OVC036 M07/M11 A3030 RMK AO2 UPB1057E1058SNB1058E29 SLP267 P0000 60000 T10671111 11044 21067 51006 FZRANO
PAUN 231133Z AUTO 28020KT 10SM SCT026 OVC034 M07/M11 A3030 RMK AO2 UPB1057E1058SNB1058E29 P0000 FZRANO
PAUN 231103Z AUTO 28019G23KT 10SM -SN BKN026 OVC032 M07/M10 A3030 RMK AO2 UPB1057E1058SNB1058 P0000 FZRANO
PAUN 231056Z AUTO 27016G23KT 10SM SCT024 BKN031 OVC038 M07/M10 A3030 RMK AO2 SNE33 SLP266 P0000 T10671100 FZRANO
PAUN 231053Z AUTO 28018KT 10SM BKN024 BKN029 OVC036 M07/M11 A3030 RMK AO2 SNE33 P0000 FZRANO
PAUN 231041Z AUTO 29017KT 10SM FEW023 SCT027 OVC036 M07/M11 A3030 RMK AO2 SNE33 P0000 FZRANO
PAUN 231005Z AUTO 30017KT 8SM -SN BKN027 OVC042 M06/M10 A3029 RMK AO2 P0000 FZRANO